sensor_id;sensor_type;location;lat;lon;timestamp;pressure;altitude;pressure_sealevel;temperature;humidity
36092;BME280;22147;52.388;13.390;2023-07-13T00:02:26;100650.75;;;14.60;100.00
36092;BME280;22147;52.388;13.390;2023-07-13T00:04:56;100651.94;;;14.59;100.00
36092;BME280;22147;52.388;13.390;2023-07-13T00:07:26;100649.41;;;14.54;100.00
36092;BME280;22147;52.388;13.390;2023-07-13T00:09:56;100647.41;;;14.55;100.00
36092;BME280;22147;52.388;13.390;2023-07-13T00:12:37;100646.94;;;14.53;100.00
36092;BME280;22147;52.388;13.390;2023-07-13T00:15:17;100649.53;;;14.45;100.00
36092;BME280;22147;52.388;13.390;2023-07-13T00:17:55;100666.56;;;14.40;100.00
36092;BME280;22147;52.388;13.390;2023-07-13T00:20:26;100658.44;;;14.35;100.00
36092;BME280;22147;52.388;13.390;2023-07-13T00:22:56;100666.00;;;14.35;100.00
36092;BME280;22147;52.388;13.390;2023-07-13T00:25:27;100678.56;;;14.29;100.00
36092;BME280;22147;52.388;13.390;2023-07-13T00:27:58;100674.91;;;14.24;100.00
36092;BME280;22147;52.388;13.390;2023-07-13T00:30:28;100672.09;;;14.24;100.00
36092;BME280;22147;52.388;13.390;2023-07-13T00:32:59;100670.91;;;14.25;100.00
36092;BME280;22147;52.388;13.390;2023-07-13T00:35:44;100662.09;;;14.23;100.00
36092;BME280;22147;52.388;13.390;2023-07-13T00:38:14;100652.91;;;14.23;100.00
36092;BME280;22147;52.388;13.390;2023-07-13T00:40:43;100660.09;;;14.24;100.00
36092;BME280;22147;52.388;13.390;2023-07-13T00:43:22;100653.00;;;14.27;100.00
36092;BME280;22147;52.388;13.390;2023-07-13T00:48:31;100658.13;;;14.24;100.00
36092;BME280;22147;52.388;13.390;2023-07-13T00:51:04;100661.97;;;14.20;100.00
36092;BME280;22147;52.388;13.390;2023-07-13T00:53:34;100660.25;;;14.15;100.00
36092;BME280;22147;52.388;13.390;2023-07-13T00:56:05;100664.56;;;14.13;100.00
36092;BME280;22147;52.388;13.390;2023-07-13T00:58:37;100671.75;;;14.14;100.00
36092;BME280;22147;52.388;13.390;2023-07-13T01:01:08;100677.16;;;14.07;100.00
36092;BME280;22147;52.388;13.390;2023-07-13T01:03:36;100676.47;;;13.97;100.00
36092;BME280;22147;52.388;13.390;2023-07-13T01:06:08;100680.34;;;13.93;100.00
36092;BME280;22147;52.388;13.390;2023-07-13T01:08:39;100675.78;;;13.88;100.00
36092;BME280;22147;52.388;13.390;2023-07-13T01:11:09;100674.97;;;13.88;100.00
36092;BME280;22147;52.388;13.390;2023-07-13T01:13:40;100679.75;;;13.87;100.00
36092;BME280;22147;52.388;13.390;2023-07-13T01:16:26;100672.44;;;13.82;100.00
36092;BME280;22147;52.388;13.390;2023-07-13T01:18:59;100668.00;;;13.81;100.00
36092;BME280;22147;52.388;13.390;2023-07-13T01:21:33;100677.75;;;13.88;100.00
36092;BME280;22147;52.388;13.390;2023-07-13T01:24:04;100676.16;;;13.87;100.00
36092;BME280;22147;52.388;13.390;2023-07-13T01:26:35;100672.31;;;13.79;100.00
36092;BME280;22147;52.388;13.390;2023-07-13T01:29:05;100675.34;;;13.74;100.00
36092;BME280;22147;52.388;13.390;2023-07-13T01:31:37;100668.84;;;13.70;100.00
36092;BME280;22147;52.388;13.390;2023-07-13T01:34:07;100667.22;;;13.69;100.00
36092;BME280;22147;52.388;13.390;2023-07-13T01:36:38;100669.19;;;13.68;100.00
36092;BME280;22147;52.388;13.390;2023-07-13T01:39:07;100672.78;;;13.69;100.00
36092;BME280;22147;52.388;13.390;2023-07-13T01:41:38;100667.09;;;13.65;100.00
36092;BME280;22147;52.388;13.390;2023-07-13T01:44:08;100667.81;;;13.62;100.00
36092;BME280;22147;52.388;13.390;2023-07-13T01:46:38;100667.69;;;13.58;100.00
36092;BME280;22147;52.388;13.390;2023-07-13T01:49:08;100675.72;;;13.60;100.00
36092;BME280;22147;52.388;13.390;2023-07-13T01:51:39;100665.59;;;13.55;100.00
36092;BME280;22147;52.388;13.390;2023-07-13T01:54:09;100683.94;;;13.56;100.00
36092;BME280;22147;52.388;13.390;2023-07-13T01:56:39;100678.38;;;13.56;100.00
36092;BME280;22147;52.388;13.390;2023-07-13T01:59:10;100664.44;;;13.56;100.00
36092;BME280;22147;52.388;13.390;2023-07-13T02:01:40;100663.75;;;13.59;100.00
36092;BME280;22147;52.388;13.390;2023-07-13T02:04:11;100669.66;;;13.58;100.00
36092;BME280;22147;52.388;13.390;2023-07-13T02:06:41;100659.69;;;13.57;100.00
36092;BME280;22147;52.388;13.390;2023-07-13T02:09:11;100664.66;;;13.51;100.00
36092;BME280;22147;52.388;13.390;2023-07-13T02:11:41;100662.00;;;13.42;100.00
36092;BME280;22147;52.388;13.390;2023-07-13T02:14:11;100661.53;;;13.40;100.00
36092;BME280;22147;52.388;13.390;2023-07-13T02:16:42;100648.53;;;13.32;100.00
36092;BME280;22147;52.388;13.390;2023-07-13T02:19:12;100642.94;;;13.32;100.00
36092;BME280;22147;52.388;13.390;2023-07-13T02:21:42;100641.84;;;13.24;100.00
36092;BME280;22147;52.388;13.390;2023-07-13T02:24:12;100642.69;;;13.13;100.00
36092;BME280;22147;52.388;13.390;2023-07-13T02:26:46;100643.59;;;13.04;100.00
36092;BME280;22147;52.388;13.390;2023-07-13T02:29:16;100641.03;;;12.99;100.00
36092;BME280;22147;52.388;13.390;2023-07-13T02:31:47;100644.50;;;12.96;100.00
36092;BME280;22147;52.388;13.390;2023-07-13T02:34:17;100653.22;;;12.95;100.00
36092;BME280;22147;52.388;13.390;2023-07-13T02:36:47;100653.09;;;12.91;100.00
36092;BME280;22147;52.388;13.390;2023-07-13T02:39:17;100653.91;;;12.92;100.00
36092;BME280;22147;52.388;13.390;2023-07-13T02:41:47;100659.63;;;12.95;100.00
36092;BME280;22147;52.388;13.390;2023-07-13T02:44:18;100662.75;;;12.94;100.00
36092;BME280;22147;52.388;13.390;2023-07-13T02:46:48;100672.63;;;12.91;100.00
36092;BME280;22147;52.388;13.390;2023-07-13T02:49:17;100667.59;;;12.84;100.00
36092;BME280;22147;52.388;13.390;2023-07-13T02:51:48;100675.84;;;12.81;100.00
36092;BME280;22147;52.388;13.390;2023-07-13T02:54:18;100669.00;;;12.78;100.00
36092;BME280;22147;52.388;13.390;2023-07-13T02:56:48;100680.94;;;12.79;100.00
36092;BME280;22147;52.388;13.390;2023-07-13T02:59:18;100690.81;;;12.76;100.00
36092;BME280;22147;52.388;13.390;2023-07-13T03:01:48;100683.13;;;12.73;100.00
36092;BME280;22147;52.388;13.390;2023-07-13T03:04:18;100682.66;;;12.71;100.00
36092;BME280;22147;52.388;13.390;2023-07-13T03:06:47;100689.03;;;12.72;100.00
36092;BME280;22147;52.388;13.390;2023-07-13T03:09:15;100696.59;;;12.71;100.00
36092;BME280;22147;52.388;13.390;2023-07-13T03:11:44;100694.28;;;12.73;100.00
36092;BME280;22147;52.388;13.390;2023-07-13T03:14:12;100688.22;;;12.71;100.00
36092;BME280;22147;52.388;13.390;2023-07-13T03:16:41;100688.09;;;12.68;100.00
36092;BME280;22147;52.388;13.390;2023-07-13T03:19:09;100689.03;;;12.59;100.00
36092;BME280;22147;52.388;13.390;2023-07-13T03:21:37;100686.44;;;12.54;100.00
36092;BME280;22147;52.388;13.390;2023-07-13T03:24:06;100684.81;;;12.53;100.00
36092;BME280;22147;52.388;13.390;2023-07-13T03:26:34;100686.75;;;12.53;100.00
36092;BME280;22147;52.388;13.390;2023-07-13T03:29:03;100685.75;;;12.57;100.00
36092;BME280;22147;52.388;13.390;2023-07-13T03:31:35;100687.75;;;12.69;100.00
36092;BME280;22147;52.388;13.390;2023-07-13T03:34:04;100695.06;;;12.74;100.00
36092;BME280;22147;52.388;13.390;2023-07-13T03:36:32;100687.66;;;12.78;100.00
36092;BME280;22147;52.388;13.390;2023-07-13T03:39:03;100688.94;;;12.80;100.00
36092;BME280;22147;52.388;13.390;2023-07-13T03:41:32;100693.72;;;12.80;100.00
36092;BME280;22147;52.388;13.390;2023-07-13T03:44:00;100696.63;;;12.83;100.00
36092;BME280;22147;52.388;13.390;2023-07-13T03:46:28;100694.09;;;12.91;100.00
36092;BME280;22147;52.388;13.390;2023-07-13T03:48:59;100706.44;;;13.02;100.00
36092;BME280;22147;52.388;13.390;2023-07-13T03:51:29;100707.25;;;13.02;100.00
36092;BME280;22147;52.388;13.390;2023-07-13T03:53:58;100708.88;;;13.03;100.00
36092;BME280;22147;52.388;13.390;2023-07-13T03:56:27;100706.53;;;13.06;100.00
36092;BME280;22147;52.388;13.390;2023-07-13T03:58:57;100713.19;;;13.13;100.00
36092;BME280;22147;52.388;13.390;2023-07-13T04:01:27;100707.84;;;13.20;100.00
36092;BME280;22147;52.388;13.390;2023-07-13T04:03:57;100706.97;;;13.29;100.00
36092;BME280;22147;52.388;13.390;2023-07-13T04:06:31;100709.16;;;13.35;100.00
36092;BME280;22147;52.388;13.390;2023-07-13T04:09:02;100716.16;;;13.41;100.00
36092;BME280;22147;52.388;13.390;2023-07-13T04:11:34;100713.97;;;13.47;100.00
36092;BME280;22147;52.388;13.390;2023-07-13T04:14:04;100717.34;;;13.53;100.00
36092;BME280;22147;52.388;13.390;2023-07-13T04:16:33;100714.78;;;13.60;100.00
36092;BME280;22147;52.388;13.390;2023-07-13T04:19:03;100721.41;;;13.68;100.00
36092;BME280;22147;52.388;13.390;2023-07-13T04:21:33;100728.00;;;13.75;100.00
36092;BME280;22147;52.388;13.390;2023-07-13T04:24:01;100731.41;;;13.81;100.00
36092;BME280;22147;52.388;13.390;2023-07-13T04:26:30;100730.47;;;13.89;100.00
36092;BME280;22147;52.388;13.390;2023-07-13T04:29:00;100731.38;;;13.93;100.00
36092;BME280;22147;52.388;13.390;2023-07-13T04:31:31;100726.81;;;14.01;100.00
36092;BME280;22147;52.388;13.390;2023-07-13T04:34:01;100732.66;;;14.08;100.00
36092;BME280;22147;52.388;13.390;2023-07-13T04:36:30;100737.28;;;14.16;100.00
36092;BME280;22147;52.388;13.390;2023-07-13T04:39:01;100737.84;;;14.22;100.00
36092;BME280;22147;52.388;13.390;2023-07-13T04:41:30;100742.00;;;14.28;100.00
36092;BME280;22147;52.388;13.390;2023-07-13T04:44:00;100740.72;;;14.38;100.00
36092;BME280;22147;52.388;13.390;2023-07-13T04:46:32;100749.75;;;14.47;100.00
36092;BME280;22147;52.388;13.390;2023-07-13T04:49:03;100755.25;;;14.56;100.00
36092;BME280;22147;52.388;13.390;2023-07-13T04:51:33;100753.94;;;14.65;100.00
36092;BME280;22147;52.388;13.390;2023-07-13T04:54:01;100753.78;;;14.74;100.00
36092;BME280;22147;52.388;13.390;2023-07-13T04:56:30;100745.81;;;14.89;100.00
36092;BME280;22147;52.388;13.390;2023-07-13T04:59:00;100752.16;;;15.01;100.00
36092;BME280;22147;52.388;13.390;2023-07-13T05:01:30;100756.59;;;15.18;100.00
36092;BME280;22147;52.388;13.390;2023-07-13T05:04:00;100755.34;;;15.32;100.00
36092;BME280;22147;52.388;13.390;2023-07-13T05:06:30;100760.56;;;15.49;100.00
36092;BME280;22147;52.388;13.390;2023-07-13T05:09:00;100764.19;;;15.65;100.00
36092;BME280;22147;52.388;13.390;2023-07-13T05:11:31;100764.13;;;15.78;100.00
36092;BME280;22147;52.388;13.390;2023-07-13T05:14:00;100759.69;;;15.93;100.00
36092;BME280;22147;52.388;13.390;2023-07-13T05:16:31;100756.69;;;16.01;100.00
36092;BME280;22147;52.388;13.390;2023-07-13T05:19:02;100754.88;;;16.09;100.00
36092;BME280;22147;52.388;13.390;2023-07-13T05:21:31;100767.56;;;16.22;100.00
36092;BME280;22147;52.388;13.390;2023-07-13T05:24:01;100761.03;;;16.34;100.00
36092;BME280;22147;52.388;13.390;2023-07-13T05:26:52;100761.50;;;16.56;100.00
36092;BME280;22147;52.388;13.390;2023-07-13T05:29:23;100768.72;;;16.76;100.00
36092;BME280;22147;52.388;13.390;2023-07-13T05:31:54;100763.06;;;16.92;100.00
36092;BME280;22147;52.388;13.390;2023-07-13T05:34:22;100760.81;;;17.21;100.00
36092;BME280;22147;52.388;13.390;2023-07-13T05:36:50;100770.50;;;17.69;100.00
36092;BME280;22147;52.388;13.390;2023-07-13T05:39:22;100774.22;;;18.00;100.00
36092;BME280;22147;52.388;13.390;2023-07-13T05:41:50;100775.63;;;18.14;100.00
36092;BME280;22147;52.388;13.390;2023-07-13T05:44:18;100774.25;;;18.30;100.00
36092;BME280;22147;52.388;13.390;2023-07-13T05:46:46;100779.22;;;18.41;100.00
36092;BME280;22147;52.388;13.390;2023-07-13T05:49:16;100780.53;;;18.47;100.00
36092;BME280;22147;52.388;13.390;2023-07-13T05:51:46;100777.13;;;18.64;100.00
36092;BME280;22147;52.388;13.390;2023-07-13T05:54:16;100769.38;;;18.84;99.51
36092;BME280;22147;52.388;13.390;2023-07-13T05:56:46;100777.69;;;19.07;97.89
36092;BME280;22147;52.388;13.390;2023-07-13T05:59:17;100778.22;;;19.20;94.07
36092;BME280;22147;52.388;13.390;2023-07-13T06:01:46;100773.09;;;19.29;90.33
36092;BME280;22147;52.388;13.390;2023-07-13T06:04:16;100774.34;;;19.36;88.69
36092;BME280;22147;52.388;13.390;2023-07-13T06:06:46;100786.19;;;19.56;87.31
36092;BME280;22147;52.388;13.390;2023-07-13T06:09:15;100780.34;;;19.71;86.36
36092;BME280;22147;52.388;13.390;2023-07-13T06:11:46;100775.69;;;19.90;86.04
36092;BME280;22147;52.388;13.390;2023-07-13T06:14:16;100772.97;;;20.08;84.34
36092;BME280;22147;52.388;13.390;2023-07-13T06:16:45;100783.25;;;20.41;84.96
36092;BME280;22147;52.388;13.390;2023-07-13T06:19:13;100778.56;;;20.63;82.16
36092;BME280;22147;52.388;13.390;2023-07-13T06:21:43;100770.19;;;20.81;80.27
36092;BME280;22147;52.388;13.390;2023-07-13T06:24:13;100772.66;;;21.01;77.86
36092;BME280;22147;52.388;13.390;2023-07-13T06:26:43;100774.25;;;20.94;74.10
36092;BME280;22147;52.388;13.390;2023-07-13T06:29:13;100767.03;;;21.04;75.34
36092;BME280;22147;52.388;13.390;2023-07-13T06:31:43;100765.03;;;21.15;74.09
36092;BME280;22147;52.388;13.390;2023-07-13T06:34:13;100761.44;;;21.33;73.22
36092;BME280;22147;52.388;13.390;2023-07-13T06:36:44;100774.78;;;21.43;73.49
36092;BME280;22147;52.388;13.390;2023-07-13T06:39:13;100768.72;;;21.41;72.93
36092;BME280;22147;52.388;13.390;2023-07-13T06:41:44;100777.25;;;21.70;72.60
36092;BME280;22147;52.388;13.390;2023-07-13T06:44:14;100782.50;;;21.79;69.94
36092;BME280;22147;52.388;13.390;2023-07-13T06:46:43;100774.03;;;21.93;68.77
36092;BME280;22147;52.388;13.390;2023-07-13T06:49:13;100779.25;;;21.98;67.61
36092;BME280;22147;52.388;13.390;2023-07-13T06:51:41;100784.50;;;21.96;67.58
36092;BME280;22147;52.388;13.390;2023-07-13T06:54:10;100777.19;;;22.20;67.51
36092;BME280;22147;52.388;13.390;2023-07-13T06:56:38;100776.75;;;22.47;65.64
36092;BME280;22147;52.388;13.390;2023-07-13T06:59:07;100779.53;;;22.68;64.99
36092;BME280;22147;52.388;13.390;2023-07-13T07:01:35;100781.09;;;22.76;64.25
36092;BME280;22147;52.388;13.390;2023-07-13T07:04:09;100785.09;;;22.90;61.78
36092;BME280;22147;52.388;13.390;2023-07-13T07:06:39;100786.31;;;22.89;61.05
36092;BME280;22147;52.388;13.390;2023-07-13T07:09:09;100781.44;;;22.96;60.27
36092;BME280;22147;52.388;13.390;2023-07-13T07:11:40;100785.03;;;23.08;61.41
36092;BME280;22147;52.388;13.390;2023-07-13T07:14:31;100781.41;;;23.00;60.99
36092;BME280;22147;52.388;13.390;2023-07-13T07:17:01;100781.91;;;22.77;62.09
36092;BME280;22147;52.388;13.390;2023-07-13T07:19:32;100785.88;;;23.01;63.52
36092;BME280;22147;52.388;13.390;2023-07-13T07:22:02;100785.88;;;23.01;61.53
36092;BME280;22147;52.388;13.390;2023-07-13T07:24:33;100784.19;;;23.11;62.18
36092;BME280;22147;52.388;13.390;2023-07-13T07:27:04;100781.59;;;23.42;59.96
36092;BME280;22147;52.388;13.390;2023-07-13T07:29:37;100781.03;;;23.61;59.86
36092;BME280;22147;52.388;13.390;2023-07-13T07:32:14;100786.53;;;23.86;59.29
36092;BME280;22147;52.388;13.390;2023-07-13T07:35:05;100787.00;;;24.23;55.99
36092;BME280;22147;52.388;13.390;2023-07-13T07:37:35;100801.56;;;24.28;55.70
36092;BME280;22147;52.388;13.390;2023-07-13T07:40:09;100796.78;;;24.18;54.57
36092;BME280;22147;52.388;13.390;2023-07-13T07:42:42;100792.00;;;24.11;55.72
36092;BME280;22147;52.388;13.390;2023-07-13T07:45:13;100793.94;;;24.18;56.31
36092;BME280;22147;52.388;13.390;2023-07-13T07:47:43;100797.38;;;24.40;57.25
36092;BME280;22147;52.388;13.390;2023-07-13T07:50:14;100800.59;;;24.42;56.67
36092;BME280;22147;52.388;13.390;2023-07-13T07:52:45;100802.13;;;24.54;55.14
36092;BME280;22147;52.388;13.390;2023-07-13T07:55:15;100800.38;;;24.64;55.80
36092;BME280;22147;52.388;13.390;2023-07-13T07:57:49;100796.22;;;25.06;54.94
36092;BME280;22147;52.388;13.390;2023-07-13T08:00:22;100807.88;;;25.12;52.02
36092;BME280;22147;52.388;13.390;2023-07-13T08:02:56;100793.41;;;25.33;53.77
36092;BME280;22147;52.388;13.390;2023-07-13T08:05:46;100802.09;;;25.23;52.01
36092;BME280;22147;52.388;13.390;2023-07-13T08:08:36;100803.22;;;24.64;53.31
36092;BME280;22147;52.388;13.390;2023-07-13T08:11:08;100800.13;;;24.09;54.41
36092;BME280;22147;52.388;13.390;2023-07-13T08:13:42;100801.75;;;23.51;56.29
36092;BME280;22147;52.388;13.390;2023-07-13T08:16:12;100804.84;;;23.11;57.63
36092;BME280;22147;52.388;13.390;2023-07-13T08:18:43;100804.94;;;22.83;59.48
36092;BME280;22147;52.388;13.390;2023-07-13T08:21:13;100802.50;;;22.81;61.09
36092;BME280;22147;52.388;13.390;2023-07-13T08:23:44;100810.59;;;22.86;60.04
36092;BME280;22147;52.388;13.390;2023-07-13T08:26:14;100804.16;;;22.79;59.53
36092;BME280;22147;52.388;13.390;2023-07-13T08:28:44;100813.41;;;22.90;59.76
36092;BME280;22147;52.388;13.390;2023-07-13T08:31:14;100813.38;;;23.01;58.92
36092;BME280;22147;52.388;13.390;2023-07-13T08:33:45;100808.88;;;23.14;58.85
36092;BME280;22147;52.388;13.390;2023-07-13T08:36:15;100815.03;;;22.94;58.99
36092;BME280;22147;52.388;13.390;2023-07-13T08:38:46;100814.22;;;22.87;58.43
36092;BME280;22147;52.388;13.390;2023-07-13T08:41:18;100816.22;;;22.90;57.96
36092;BME280;22147;52.388;13.390;2023-07-13T08:43:58;100814.59;;;23.03;57.52
36092;BME280;22147;52.388;13.390;2023-07-13T08:46:40;100813.16;;;23.44;57.34
36092;BME280;22147;52.388;13.390;2023-07-13T08:49:22;100815.03;;;23.65;56.89
36092;BME280;22147;52.388;13.390;2023-07-13T08:51:55;100816.78;;;24.00;55.94
36092;BME280;22147;52.388;13.390;2023-07-13T08:54:44;100816.56;;;24.25;54.58
36092;BME280;22147;52.388;13.390;2023-07-13T08:57:31;100818.75;;;24.52;53.08
36092;BME280;22147;52.388;13.390;2023-07-13T09:00:02;100822.88;;;24.44;52.16
36092;BME280;22147;52.388;13.390;2023-07-13T09:02:57;100818.38;;;24.50;55.64
36092;BME280;22147;52.388;13.390;2023-07-13T09:05:42;100814.41;;;24.78;50.98
36092;BME280;22147;52.388;13.390;2023-07-13T09:14:43;100817.50;;;24.56;50.68
36092;BME280;22147;52.388;13.390;2023-07-13T09:17:41;100809.19;;;24.73;48.73
36092;BME280;22147;52.388;13.390;2023-07-13T09:20:31;100818.03;;;24.78;45.56
36092;BME280;22147;52.388;13.390;2023-07-13T09:23:22;100816.19;;;24.65;46.38
36092;BME280;22147;52.388;13.390;2023-07-13T09:28:58;100812.34;;;23.99;49.48
36092;BME280;22147;52.388;13.390;2023-07-13T09:31:44;100811.34;;;23.71;48.04
36092;BME280;22147;52.388;13.390;2023-07-13T09:34:19;100812.34;;;23.43;50.38
36092;BME280;22147;52.388;13.390;2023-07-13T09:36:49;100813.72;;;23.17;49.20
36092;BME280;22147;52.388;13.390;2023-07-13T09:39:39;100815.03;;;22.87;49.83
36092;BME280;22147;52.388;13.390;2023-07-13T09:42:17;100820.38;;;22.67;50.88
36092;BME280;22147;52.388;13.390;2023-07-13T09:45:00;100819.56;;;22.60;50.23
36092;BME280;22147;52.388;13.390;2023-07-13T09:47:40;100829.69;;;22.61;52.13
36092;BME280;22147;52.388;13.390;2023-07-13T09:50:16;100818.81;;;22.48;52.28
36092;BME280;22147;52.388;13.390;2023-07-13T09:52:49;100819.66;;;22.24;53.43
36092;BME280;22147;52.388;13.390;2023-07-13T09:55:38;100826.91;;;22.28;55.09
36092;BME280;22147;52.388;13.390;2023-07-13T09:58:20;100824.06;;;22.43;55.49
36092;BME280;22147;52.388;13.390;2023-07-13T10:01:03;100816.25;;;22.86;53.60
36092;BME280;22147;52.388;13.390;2023-07-13T10:03:39;100823.78;;;23.29;53.58
36092;BME280;22147;52.388;13.390;2023-07-13T10:06:19;100822.59;;;23.86;51.91
36092;BME280;22147;52.388;13.390;2023-07-13T10:08:51;100815.59;;;23.97;51.45
36092;BME280;22147;52.388;13.390;2023-07-13T10:11:34;100825.22;;;23.55;50.62
36092;BME280;22147;52.388;13.390;2023-07-13T10:14:21;100829.16;;;23.05;53.31
36092;BME280;22147;52.388;13.390;2023-07-13T10:17:02;100832.13;;;22.59;53.47
36092;BME280;22147;52.388;13.390;2023-07-13T10:19:35;100831.72;;;22.49;54.33
36092;BME280;22147;52.388;13.390;2023-07-13T10:22:27;100826.88;;;22.43;53.71
36092;BME280;22147;52.388;13.390;2023-07-13T10:25:03;100833.41;;;22.29;51.71
36092;BME280;22147;52.388;13.390;2023-07-13T10:31:14;100825.19;;;22.77;53.02
36092;BME280;22147;52.388;13.390;2023-07-13T10:33:46;100823.66;;;23.47;52.02
36092;BME280;22147;52.388;13.390;2023-07-13T10:36:33;100823.19;;;24.11;48.98
36092;BME280;22147;52.388;13.390;2023-07-13T10:39:20;100829.66;;;24.15;49.12
36092;BME280;22147;52.388;13.390;2023-07-13T10:42:06;100836.06;;;23.71;48.18
36092;BME280;22147;52.388;13.390;2023-07-13T10:44:44;100845.47;;;23.53;49.24
36092;BME280;22147;52.388;13.390;2023-07-13T10:47:17;100842.28;;;23.48;50.55
36092;BME280;22147;52.388;13.390;2023-07-13T10:49:56;100840.59;;;23.57;51.26
36092;BME280;22147;52.388;13.390;2023-07-13T10:53:01;100833.34;;;23.49;50.19
36092;BME280;22147;52.388;13.390;2023-07-13T10:58:39;100819.38;;;23.17;50.04
36092;BME280;22147;52.388;13.390;2023-07-13T11:01:17;100820.56;;;23.23;48.44
36092;BME280;22147;52.388;13.390;2023-07-13T11:04:03;100831.66;;;23.63;48.83
36092;BME280;22147;52.388;13.390;2023-07-13T11:06:42;100823.41;;;23.86;47.81
36092;BME280;22147;52.388;13.390;2023-07-13T11:09:41;100829.94;;;24.25;49.03
36092;BME280;22147;52.388;13.390;2023-07-13T11:23:06;100823.28;;;24.01;44.82
36092;BME280;22147;52.388;13.390;2023-07-13T11:25:40;100818.22;;;24.23;45.19
36092;BME280;22147;52.388;13.390;2023-07-13T11:33:50;100805.28;;;24.22;41.88
36092;BME280;22147;52.388;13.390;2023-07-13T11:36:35;100805.41;;;24.07;41.63
36092;BME280;22147;52.388;13.390;2023-07-13T11:39:17;100801.09;;;24.30;43.61
36092;BME280;22147;52.388;13.390;2023-07-13T11:41:58;100802.00;;;24.65;41.89
36092;BME280;22147;52.388;13.390;2023-07-13T11:44:34;100817.13;;;24.54;40.18
36092;BME280;22147;52.388;13.390;2023-07-13T11:47:14;100811.44;;;24.54;41.03
36092;BME280;22147;52.388;13.390;2023-07-13T11:49:55;100806.50;;;24.62;42.31
36092;BME280;22147;52.388;13.390;2023-07-13T11:52:35;100800.75;;;24.66;41.71
36092;BME280;22147;52.388;13.390;2023-07-13T11:55:17;100806.88;;;24.64;41.77
36092;BME280;22147;52.388;13.390;2023-07-13T11:57:58;100804.81;;;24.68;42.78
36092;BME280;22147;52.388;13.390;2023-07-13T12:00:33;100802.22;;;24.81;41.94
36092;BME280;22147;52.388;13.390;2023-07-13T12:03:05;100791.53;;;24.89;42.68
36092;BME280;22147;52.388;13.390;2023-07-13T12:05:36;100802.63;;;25.10;41.67
36092;BME280;22147;52.388;13.390;2023-07-13T12:08:11;100787.38;;;24.97;41.07
36092;BME280;22147;52.388;13.390;2023-07-13T12:11:18;100783.50;;;25.14;41.89
36092;BME280;22147;52.388;13.390;2023-07-13T12:13:50;100782.38;;;25.08;39.04
36092;BME280;22147;52.388;13.390;2023-07-13T12:16:32;100795.31;;;25.13;40.26
36092;BME280;22147;52.388;13.390;2023-07-13T12:19:03;100788.72;;;25.19;38.83
36092;BME280;22147;52.388;13.390;2023-07-13T12:21:44;100787.38;;;24.97;38.23
36092;BME280;22147;52.388;13.390;2023-07-13T12:24:18;100790.53;;;24.72;40.13
36092;BME280;22147;52.388;13.390;2023-07-13T12:27:02;100794.16;;;24.76;38.91
36092;BME280;22147;52.388;13.390;2023-07-13T12:29:34;100788.78;;;24.85;40.03
36092;BME280;22147;52.388;13.390;2023-07-13T12:32:09;100792.31;;;24.93;39.90
36092;BME280;22147;52.388;13.390;2023-07-13T12:34:56;100795.13;;;24.96;39.35
36092;BME280;22147;52.388;13.390;2023-07-13T12:37:37;100795.50;;;24.98;41.31
36092;BME280;22147;52.388;13.390;2023-07-13T12:40:16;100801.78;;;25.13;40.74
36092;BME280;22147;52.388;13.390;2023-07-13T12:42:52;100789.25;;;25.11;42.26
36092;BME280;22147;52.388;13.390;2023-07-13T12:45:27;100797.44;;;25.05;40.93
36092;BME280;22147;52.388;13.390;2023-07-13T12:48:16;100798.03;;;25.24;41.22
36092;BME280;22147;52.388;13.390;2023-07-13T12:51:00;100784.63;;;25.24;40.03
36092;BME280;22147;52.388;13.390;2023-07-13T12:53:31;100789.13;;;25.18;40.26
36092;BME280;22147;52.388;13.390;2023-07-13T12:56:24;100797.31;;;24.82;39.78
36092;BME280;22147;52.388;13.390;2023-07-13T12:59:02;100798.09;;;24.48;40.66
36092;BME280;22147;52.388;13.390;2023-07-13T13:01:35;100794.81;;;24.53;39.76
36092;BME280;22147;52.388;13.390;2023-07-13T13:04:09;100803.28;;;24.60;39.69
36092;BME280;22147;52.388;13.390;2023-07-13T13:06:43;100792.44;;;24.82;41.18
36092;BME280;22147;52.388;13.390;2023-07-13T13:09:16;100796.13;;;25.10;40.31
36092;BME280;22147;52.388;13.390;2023-07-13T13:11:48;100797.66;;;25.22;40.50
36092;BME280;22147;52.388;13.390;2023-07-13T13:14:20;100789.94;;;25.18;40.07
36092;BME280;22147;52.388;13.390;2023-07-13T13:16:52;100796.94;;;24.79;39.28
36092;BME280;22147;52.388;13.390;2023-07-13T13:19:27;100802.50;;;24.56;40.48
36092;BME280;22147;52.388;13.390;2023-07-13T13:21:56;100796.06;;;24.52;41.85
36092;BME280;22147;52.388;13.390;2023-07-13T13:24:28;100787.31;;;24.70;40.94
36092;BME280;22147;52.388;13.390;2023-07-13T13:26:56;100798.88;;;24.86;41.20
36092;BME280;22147;52.388;13.390;2023-07-13T13:29:25;100790.75;;;24.88;40.77
36092;BME280;22147;52.388;13.390;2023-07-13T13:31:56;100797.84;;;25.04;41.42
36092;BME280;22147;52.388;13.390;2023-07-13T13:34:25;100798.06;;;25.20;40.86
36092;BME280;22147;52.388;13.390;2023-07-13T13:36:55;100792.22;;;25.31;39.29
36092;BME280;22147;52.388;13.390;2023-07-13T13:39:36;100788.16;;;25.32;41.09
36092;BME280;22147;52.388;13.390;2023-07-13T13:42:11;100794.06;;;25.72;38.55
36092;BME280;22147;52.388;13.390;2023-07-13T13:44:38;100789.34;;;25.89;39.35